Time;durP1;ratioP1;P1;durP2;ratioP2;P2;SDS_P1;SDS_P2;PMS_P1;PMS_P2;Temp;Humidity;BMP_temperature;BMP_pressure;BME280_temperature;BME280_humidity;BME280_pressure;Samples;Min_cycle;Max_cycle;Signal;HPM_P1;HPM_P2
2021/03/07 00:00:23;;;;;;;12.10;6.77;;;0.30;64.70;;;;;;5036144;28;20504;-75
2021/03/07 00:02:49;;;;;;;10.98;6.80;;;0.20;65.40;;;;;;5032326;28;20216;-72
2021/03/07 00:05:16;;;;;;;13.00;6.10;;;0.20;64.80;;;;;;5037730;28;20310;-72
2021/03/07 00:07:43;;;;;;;13.70;6.07;;;0.20;64.50;;;;;;5040190;28;20195;-70
2021/03/07 00:10:11;;;;;;;12.50;5.75;;;0.20;64.50;;;;;;5034138;28;20180;-71
2021/03/07 00:12:37;;;;;;;12.88;6.22;;;0.20;64.10;;;;;;5033166;28;20220;-72
2021/03/07 00:15:08;;;;;;;9.60;5.40;;;0.20;65.30;;;;;;5036791;28;20273;-71
2021/03/07 00:17:34;;;;;;;13.65;5.60;;;0.20;64.50;;;;;;5046753;28;20207;-73
2021/03/07 00:20:01;;;;;;;10.05;5.85;;;0.20;64.40;;;;;;5028931;28;20682;-72
2021/03/07 00:22:27;;;;;;;11.40;6.25;;;0.20;63.90;;;;;;5032209;28;20228;-73
2021/03/07 00:24:53;;;;;;;15.40;8.47;;;0.10;63.80;;;;;;5030422;28;20181;-70
2021/03/07 00:27:19;;;;;;;13.77;8.73;;;0.10;65.00;;;;;;5026046;28;20423;-71
2021/03/07 00:29:45;;;;;;;19.97;9.73;;;0.10;68.30;;;;;;5042543;28;20190;-72
2021/03/07 00:32:11;;;;;;;18.73;9.00;;;0.10;69.40;;;;;;5016973;28;21338;-73
2021/03/07 00:34:38;;;;;;;14.35;8.25;;;0.10;69.80;;;;;;5037190;28;20536;-70
2021/03/07 00:37:03;;;;;;;14.55;7.00;;;0.10;70.10;;;;;;5049072;28;20505;-72
2021/03/07 00:39:30;;;;;;;12.33;6.80;;;0.10;68.80;;;;;;5038905;28;20197;-72
2021/03/07 00:41:57;;;;;;;8.95;5.75;;;0.10;67.50;;;;;;5050055;28;20220;-70
2021/03/07 00:44:23;;;;;;;12.07;6.45;;;0.00;67.20;;;;;;5041036;28;20189;-71
2021/03/07 00:46:49;;;;;;;8.70;5.80;;;-0.10;67.50;;;;;;5043580;28;20272;-70
2021/03/07 00:49:20;;;;;;;14.40;6.20;;;-0.10;67.20;;;;;;5037414;28;20208;-70
2021/03/07 00:51:47;;;;;;;9.93;5.68;;;-0.10;66.60;;;;;;5036609;28;20221;-70
2021/03/07 00:54:13;;;;;;;11.77;6.03;;;-0.10;66.30;;;;;;5039458;28;20219;-71
2021/03/07 00:56:39;;;;;;;11.87;5.70;;;-0.10;66.40;;;;;;5042623;28;20228;-71
2021/03/07 00:59:05;;;;;;;8.18;5.80;;;-0.10;66.30;;;;;;5029675;28;21036;-69
2021/03/07 01:01:31;;;;;;;10.33;6.27;;;-0.10;66.40;;;;;;5043202;28;20208;-70
2021/03/07 01:03:57;;;;;;;11.40;6.15;;;-0.10;66.40;;;;;;5029922;28;20931;-70
2021/03/07 01:06:22;;;;;;;9.07;5.83;;;-0.10;66.60;;;;;;5026834;28;20299;-71
2021/03/07 01:08:48;;;;;;;10.40;5.50;;;-0.10;66.40;;;;;;5029615;28;20568;-71
2021/03/07 01:11:14;;;;;;;15.17;5.60;;;-0.20;66.30;;;;;;5030059;28;20215;-70
2021/03/07 01:13:39;;;;;;;13.83;6.07;;;-0.10;66.30;;;;;;5030137;28;20284;-70
2021/03/07 01:16:05;;;;;;;9.27;5.80;;;-0.20;66.40;;;;;;5028972;28;20855;-72
2021/03/07 01:18:31;;;;;;;13.37;6.80;;;-0.20;67.30;;;;;;5041828;28;20699;-70
2021/03/07 01:20:57;;;;;;;11.65;6.72;;;-0.30;67.70;;;;;;5055251;28;20258;-71
2021/03/07 01:23:24;;;;;;;13.53;7.43;;;-0.20;68.00;;;;;;5054038;28;20723;-70
2021/03/07 01:25:49;;;;;;;12.27;7.35;;;-0.30;68.20;;;;;;5036611;28;20182;-72
2021/03/07 01:28:16;;;;;;;15.10;8.30;;;-0.30;68.60;;;;;;5040042;28;20189;-69
2021/03/07 01:30:43;;;;;;;13.63;7.65;;;-0.30;69.40;;;;;;5036381;28;20420;-70
2021/03/07 01:33:09;;;;;;;18.77;8.75;;;-0.30;69.50;;;;;;5032419;28;20205;-71
2021/03/07 01:35:35;;;;;;;19.70;9.43;;;-0.30;71.60;;;;;;5030802;28;20249;-69
2021/03/07 01:38:01;;;;;;;20.23;8.97;;;-0.30;72.40;;;;;;5033732;28;20220;-70
2021/03/07 01:40:40;;;;;;;15.90;9.02;;;-0.30;73.00;;;;;;5036078;28;20424;-71
2021/03/07 01:43:06;;;;;;;15.68;8.75;;;-0.40;73.50;;;;;;5039538;28;20754;-72
2021/03/07 01:45:33;;;;;;;16.77;8.40;;;-0.30;73.70;;;;;;5043606;28;20174;-70
2021/03/07 01:48:05;;;;;;;15.43;7.90;;;-0.30;73.90;;;;;;5033252;28;20268;-71
2021/03/07 01:50:33;;;;;;;16.02;8.50;;;-0.40;73.70;;;;;;5040141;28;20208;-71
2021/03/07 01:52:59;;;;;;;14.90;7.60;;;-0.40;73.70;;;;;;5042498;28;20229;-71
2021/03/07 01:55:27;;;;;;;12.60;6.10;;;-0.40;73.20;;;;;;5036864;28;20196;-70
2021/03/07 01:58:12;;;;;;;11.68;6.50;;;-0.40;72.70;;;;;;5036395;28;20671;-70
2021/03/07 02:00:38;;;;;;;14.63;6.75;;;-0.30;72.40;;;;;;5028814;28;20196;-70
2021/03/07 02:03:04;;;;;;;13.05;6.50;;;-0.40;72.10;;;;;;5031345;28;20266;-72
2021/03/07 02:05:31;;;;;;;13.30;6.15;;;-0.40;72.10;;;;;;5048445;28;20674;-71
2021/03/07 02:07:56;;;;;;;12.30;6.82;;;-0.50;72.30;;;;;;5048237;28;20344;-73
2021/03/07 02:10:27;;;;;;;14.00;7.00;;;-0.50;71.80;;;;;;5038641;28;20208;-71
2021/03/07 02:12:56;;;;;;;15.25;7.40;;;-0.50;72.00;;;;;;5041744;28;20224;-71
2021/03/07 02:15:24;;;;;;;12.20;6.35;;;-0.50;72.10;;;;;;5036832;28;20193;-69
2021/03/07 02:17:50;;;;;;;11.60;7.25;;;-0.60;72.10;;;;;;5032312;28;20596;-71
2021/03/07 02:20:19;;;;;;;12.63;7.07;;;-0.60;72.60;;;;;;5038429;28;20335;-71
2021/03/07 02:23:11;;;;;;;17.27;8.77;;;-0.60;73.20;;;;;;5035310;28;20481;-72
2021/03/07 02:25:37;;;;;;;13.77;8.07;;;-0.60;74.00;;;;;;5017816;28;20238;-71
2021/03/07 02:28:06;;;;;;;16.20;8.13;;;-0.60;74.50;;;;;;5035485;28;20189;-72
2021/03/07 02:30:32;;;;;;;17.85;7.72;;;-0.70;73.70;;;;;;5048252;28;20321;-72
2021/03/07 02:33:13;;;;;;;13.52;7.43;;;-0.70;73.30;;;;;;5030259;28;20345;-71
2021/03/07 02:35:45;;;;;;;14.85;6.65;;;-0.70;73.60;;;;;;5038465;28;20225;-72
2021/03/07 02:38:13;;;;;;;9.88;6.65;;;-0.60;73.90;;;;;;5028463;28;20193;-72
2021/03/07 02:40:40;;;;;;;15.65;8.52;;;-0.60;73.30;;;;;;5030763;28;20184;-71
2021/03/07 02:43:10;;;;;;;11.82;7.00;;;-0.70;73.30;;;;;;5038572;28;20201;-72
2021/03/07 02:45:36;;;;;;;13.30;7.03;;;-0.70;73.70;;;;;;5032759;28;20176;-72
2021/03/07 02:48:02;;;;;;;11.88;7.00;;;-0.70;73.70;;;;;;5048766;28;20188;-72
2021/03/07 02:50:30;;;;;;;11.70;6.50;;;-0.70;73.90;;;;;;5046461;28;20208;-72
2021/03/07 02:53:02;;;;;;;15.98;6.53;;;-0.80;73.70;;;;;;5030717;28;20213;-72
2021/03/07 02:55:32;;;;;;;17.73;7.22;;;-0.80;73.90;;;;;;5042735;28;20192;-72
2021/03/07 02:58:05;;;;;;;10.57;6.90;;;-0.80;73.90;;;;;;5029212;28;20195;-72
2021/03/07 03:00:33;;;;;;;11.60;7.85;;;-0.80;73.70;;;;;;5026570;28;20196;-71
2021/03/07 03:03:04;;;;;;;12.23;7.25;;;-0.80;73.70;;;;;;5041129;28;20208;-72
2021/03/07 03:05:31;;;;;;;15.20;7.32;;;-0.80;73.50;;;;;;5026061;28;20279;-72
2021/03/07 03:07:59;;;;;;;10.32;6.10;;;-0.80;73.50;;;;;;5042457;28;20850;-71
2021/03/07 03:10:26;;;;;;;13.65;7.15;;;-0.70;73.90;;;;;;5027851;28;20189;-71
2021/03/07 03:12:53;;;;;;;13.93;7.10;;;-0.70;73.90;;;;;;5027242;28;20292;-71
2021/03/07 03:15:19;;;;;;;9.70;6.55;;;-0.70;73.60;;;;;;5034404;28;20279;-72
2021/03/07 03:17:46;;;;;;;12.75;6.70;;;-0.70;73.70;;;;;;5045785;28;20188;-72
2021/03/07 03:20:17;;;;;;;16.80;6.78;;;-0.60;73.60;;;;;;5029334;28;20188;-72
2021/03/07 03:22:43;;;;;;;15.77;7.90;;;-0.70;73.20;;;;;;5033253;28;20253;-72
2021/03/07 03:25:10;;;;;;;14.85;6.90;;;-0.60;73.00;;;;;;5028071;28;20185;-72
2021/03/07 03:27:36;;;;;;;15.25;7.22;;;-0.70;72.90;;;;;;5039746;28;20177;-72
2021/03/07 03:30:11;;;;;;;17.10;7.82;;;-0.70;72.90;;;;;;5040525;28;20215;-73
2021/03/07 03:32:38;;;;;;;15.20;8.13;;;-0.70;72.40;;;;;;5027501;28;20205;-72
2021/03/07 03:35:07;;;;;;;13.85;7.85;;;-0.80;72.30;;;;;;5035958;28;20212;-72
2021/03/07 03:37:34;;;;;;;15.95;8.43;;;-0.70;72.10;;;;;;5030551;28;20660;-72
2021/03/07 03:40:00;;;;;;;16.08;7.90;;;-0.80;71.80;;;;;;5030968;28;20193;-72
2021/03/07 03:42:27;;;;;;;12.90;7.45;;;-0.80;72.10;;;;;;5043598;28;20308;-72
2021/03/07 03:44:54;;;;;;;16.10;7.55;;;-0.90;72.40;;;;;;5040372;28;20216;-72
2021/03/07 03:47:20;;;;;;;13.75;7.00;;;-0.90;72.70;;;;;;5032864;28;20242;-72
2021/03/07 03:49:53;;;;;;;18.60;7.70;;;-0.80;72.70;;;;;;5033847;28;20268;-72
2021/03/07 03:52:21;;;;;;;11.95;7.28;;;-0.80;72.30;;;;;;5020001;28;20216;-71
2021/03/07 03:55:08;;;;;;;13.68;7.53;;;-0.80;72.10;;;;;;5032265;28;20185;-70
2021/03/07 03:57:35;;;;;;;14.98;6.75;;;-0.80;72.10;;;;;;5033553;28;20207;-72
2021/03/07 04:00:10;;;;;;;11.65;6.95;;;-0.80;72.30;;;;;;5052947;28;20235;-72
2021/03/07 04:02:36;;;;;;;16.83;8.25;;;-0.80;72.70;;;;;;5042258;28;20235;-73
2021/03/07 04:05:09;;;;;;;12.60;7.13;;;-0.80;72.90;;;;;;5044809;28;20189;-72
2021/03/07 04:07:37;;;;;;;15.70;7.32;;;-0.80;73.60;;;;;;5033330;28;20189;-71
2021/03/07 04:10:06;;;;;;;11.27;6.20;;;-0.70;73.60;;;;;;5042928;28;20589;-71
2021/03/07 04:12:32;;;;;;;16.02;7.93;;;-0.80;73.90;;;;;;5032762;28;20213;-71
2021/03/07 04:14:59;;;;;;;15.35;7.20;;;-0.80;73.70;;;;;;5032189;28;20912;-72
2021/03/07 04:17:26;;;;;;;17.23;7.93;;;-0.80;73.60;;;;;;5039395;28;20208;-71
2021/03/07 04:19:53;;;;;;;13.10;7.55;;;-0.80;73.90;;;;;;5031831;28;20189;-71
2021/03/07 04:22:19;;;;;;;18.85;8.43;;;-0.90;74.30;;;;;;5031417;28;20696;-71
2021/03/07 04:24:46;;;;;;;13.48;7.75;;;-0.90;73.70;;;;;;5032234;28;20209;-70
2021/03/07 04:27:12;;;;;;;20.30;7.20;;;-0.90;73.30;;;;;;5032810;28;20224;-71
2021/03/07 04:29:38;;;;;;;12.80;7.20;;;-0.80;72.90;;;;;;5044018;28;20211;-69
2021/03/07 04:32:06;;;;;;;15.00;7.50;;;-0.80;72.70;;;;;;5037052;28;20205;-70
2021/03/07 04:34:33;;;;;;;12.23;6.80;;;-0.80;73.20;;;;;;5039621;28;20192;-71
2021/03/07 04:37:00;;;;;;;14.18;7.38;;;-0.90;73.20;;;;;;5040706;28;20859;-71
2021/03/07 04:39:27;;;;;;;14.82;7.25;;;-0.90;73.60;;;;;;5052706;28;20207;-70
2021/03/07 04:41:53;;;;;;;12.02;7.15;;;-0.90;73.70;;;;;;5039849;28;20720;-71
2021/03/07 04:44:19;;;;;;;12.77;7.20;;;-0.90;73.60;;;;;;5033208;28;20553;-72
2021/03/07 04:46:45;;;;;;;13.83;7.37;;;-1.00;73.70;;;;;;5033269;28;20193;-71
2021/03/07 04:49:11;;;;;;;14.43;7.70;;;-1.00;73.90;;;;;;5053284;28;20845;-71
2021/03/07 04:51:36;;;;;;;15.40;7.73;;;-1.00;74.30;;;;;;5038693;28;20265;-71
2021/03/07 04:54:03;;;;;;;14.93;8.20;;;-0.90;74.50;;;;;;5041945;28;20425;-71
2021/03/07 04:56:30;;;;;;;13.93;7.50;;;-1.00;74.30;;;;;;5038490;28;20197;-71
2021/03/07 04:58:57;;;;;;;18.63;8.20;;;-1.00;74.60;;;;;;5034355;28;20186;-72
2021/03/07 05:01:23;;;;;;;12.88;7.20;;;-0.90;74.50;;;;;;5051222;28;20239;-72
2021/03/07 05:03:51;;;;;;;13.10;7.15;;;-0.90;74.20;;;;;;5045172;28;20193;-71
2021/03/07 05:06:18;;;;;;;15.70;6.80;;;-1.00;74.20;;;;;;5050627;28;20202;-72
2021/03/07 05:08:43;;;;;;;14.52;6.55;;;-1.00;74.80;;;;;;5044830;28;20181;-72
2021/03/07 05:11:09;;;;;;;16.40;7.80;;;-1.00;74.80;;;;;;5050569;28;20255;-72
2021/03/07 05:13:35;;;;;;;17.97;8.27;;;-0.90;74.90;;;;;;5046032;28;20208;-72
2021/03/07 05:16:00;;;;;;;19.43;7.53;;;-1.00;74.60;;;;;;5049397;28;20217;-71
2021/03/07 05:18:26;;;;;;;17.03;6.90;;;-1.00;74.20;;;;;;5042121;28;20307;-71
2021/03/07 05:20:52;;;;;;;15.43;8.40;;;-1.00;74.60;;;;;;5038668;28;20189;-72
2021/03/07 05:23:18;;;;;;;13.37;8.00;;;-1.10;74.90;;;;;;5044483;28;20247;-71
2021/03/07 05:25:44;;;;;;;14.97;7.40;;;-1.10;75.10;;;;;;5019559;28;20428;-70
2021/03/07 05:28:10;;;;;;;13.03;7.37;;;-1.10;74.80;;;;;;5040142;28;20185;-71
2021/03/07 05:30:37;;;;;;;13.57;7.93;;;-1.20;74.80;;;;;;5036922;28;20185;-70
2021/03/07 05:33:03;;;;;;;12.85;6.75;;;-1.10;74.80;;;;;;5031004;28;20234;-71
2021/03/07 05:35:29;;;;;;;15.23;7.03;;;-1.10;74.90;;;;;;5036701;28;20686;-72
2021/03/07 05:37:55;;;;;;;12.07;7.10;;;-1.10;74.90;;;;;;5043228;28;20185;-71
2021/03/07 05:40:20;;;;;;;12.70;7.43;;;-1.10;75.20;;;;;;5034805;28;20217;-70
2021/03/07 05:42:47;;;;;;;14.00;6.83;;;-1.10;75.50;;;;;;5049770;28;20507;-71
2021/03/07 05:45:13;;;;;;;10.05;6.72;;;-1.10;75.50;;;;;;5046373;28;20609;-73
2021/03/07 05:47:40;;;;;;;13.73;6.90;;;-1.00;75.70;;;;;;5051572;28;20255;-70
2021/03/07 05:50:07;;;;;;;12.80;7.13;;;-1.00;75.80;;;;;;5034173;28;20288;-71
2021/03/07 05:52:33;;;;;;;15.07;7.40;;;-1.10;75.80;;;;;;5019757;28;20208;-73
2021/03/07 05:54:59;;;;;;;22.02;9.10;;;-1.10;75.90;;;;;;5014902;28;20196;-72
2021/03/07 05:57:25;;;;;;;17.33;8.00;;;-1.10;75.80;;;;;;5030875;28;20186;-73
2021/03/07 05:59:52;;;;;;;13.68;7.68;;;-1.10;75.90;;;;;;5031798;28;20518;-73
2021/03/07 06:02:18;;;;;;;19.27;8.43;;;-1.10;75.70;;;;;;5040272;28;20231;-71
2021/03/07 06:04:53;;;;;;;15.52;8.60;;;-1.10;75.50;;;;;;5032498;28;20261;-73
2021/03/07 06:07:20;;;;;;;14.23;7.22;;;-1.10;75.50;;;;;;5041134;28;20180;-71
2021/03/07 06:09:46;;;;;;;15.32;8.25;;;-1.10;75.80;;;;;;5034453;28;20185;-73
2021/03/07 06:12:17;;;;;;;15.30;7.20;;;-1.10;76.50;;;;;;5040188;28;20208;-73
2021/03/07 06:14:44;;;;;;;15.07;7.85;;;-1.10;76.40;;;;;;5029896;28;20946;-73
2021/03/07 06:17:13;;;;;;;14.93;7.57;;;-1.00;76.10;;;;;;5043019;28;20197;-72
2021/03/07 06:20:00;;;;;;;13.55;7.65;;;-1.00;76.20;;;;;;5037580;28;20181;-72
2021/03/07 06:22:30;;;;;;;15.82;7.63;;;-1.00;76.20;;;;;;5037317;28;20232;-72
2021/03/07 06:24:56;;;;;;;13.45;7.85;;;-1.00;76.20;;;;;;5032088;28;20195;-73
2021/03/07 06:27:24;;;;;;;14.15;8.00;;;-1.00;76.40;;;;;;5026155;28;20551;-73
2021/03/07 06:30:20;;;;;;;15.85;8.13;;;-1.00;76.50;;;;;;5042155;28;20307;-74
2021/03/07 06:33:00;;;;;;;13.57;7.85;;;-1.00;76.50;;;;;;4987709;28;20618;-72
2021/03/07 06:35:34;;;;;;;15.10;7.82;;;-0.90;76.40;;;;;;4956044;28;20240;-71
2021/03/07 06:38:01;;;;;;;19.20;7.72;;;-0.90;75.90;;;;;;4968547;28;20262;-71
2021/03/07 06:40:40;;;;;;;17.08;8.05;;;-0.90;76.20;;;;;;4968681;28;20245;-70
2021/03/07 06:43:22;;;;;;;17.65;9.18;;;-0.80;76.40;;;;;;4968389;28;20349;-71
2021/03/07 06:45:48;;;;;;;14.60;8.05;;;-0.80;76.40;;;;;;4967779;28;20187;-70
2021/03/07 06:48:14;;;;;;;13.97;8.47;;;-0.80;76.20;;;;;;4972828;28;20187;-72
2021/03/07 06:50:57;;;;;;;19.27;8.98;;;-0.80;76.20;;;;;;4968475;28;20361;-71
2021/03/07 06:53:33;;;;;;;16.08;8.48;;;-0.80;75.90;;;;;;4951419;28;20207;-71
2021/03/07 06:55:59;;;;;;;13.48;8.07;;;-0.70;75.70;;;;;;4967232;28;20199;-73
2021/03/07 06:58:25;;;;;;;13.23;7.05;;;-0.60;75.20;;;;;;4951679;28;20179;-72
2021/03/07 07:00:52;;;;;;;14.18;8.38;;;-0.60;75.10;;;;;;4968293;28;20202;-72
2021/03/07 07:03:18;;;;;;;14.57;8.13;;;-0.60;74.50;;;;;;4981109;28;20220;-71
2021/03/07 07:05:50;;;;;;;15.60;8.60;;;-0.60;74.50;;;;;;4967960;28;20187;-72
2021/03/07 07:08:18;;;;;;;16.02;8.63;;;-0.60;74.50;;;;;;4964054;28;20430;-70
2021/03/07 07:11:02;;;;;;;16.35;9.23;;;-0.50;74.50;;;;;;5023326;28;20220;-70
2021/03/07 07:13:29;;;;;;;16.65;9.60;;;-0.40;74.20;;;;;;5039279;28;20210;-72
2021/03/07 07:16:01;;;;;;;20.92;9.85;;;-0.40;73.90;;;;;;5050302;28;20185;-74
2021/03/07 07:18:28;;;;;;;17.73;9.93;;;-0.30;74.20;;;;;;5031826;28;20185;-72
2021/03/07 07:20:55;;;;;;;22.83;10.38;;;-0.30;74.30;;;;;;5046315;28;20255;-71
2021/03/07 07:23:22;;;;;;;17.02;9.00;;;-0.20;74.20;;;;;;5055110;28;20203;-74
2021/03/07 07:25:48;;;;;;;18.42;10.68;;;-0.10;73.60;;;;;;5028908;28;20181;-71
2021/03/07 07:28:15;;;;;;;16.95;9.10;;;-0.20;73.60;;;;;;5058695;28;20552;-71
2021/03/07 07:30:41;;;;;;;18.83;10.18;;;-0.20;74.20;;;;;;5052546;28;20297;-70
2021/03/07 07:33:16;;;;;;;20.15;9.82;;;-0.20;74.20;;;;;;5025320;28;20288;-71
2021/03/07 07:35:43;;;;;;;15.38;9.00;;;-0.10;73.60;;;;;;5037964;28;20183;-70
2021/03/07 07:38:12;;;;;;;14.98;7.90;;;0.00;73.60;;;;;;5049790;28;20204;-71
2021/03/07 07:40:40;;;;;;;13.93;8.40;;;0.10;73.20;;;;;;5052594;28;20188;-74
2021/03/07 07:43:07;;;;;;;16.63;9.20;;;0.20;72.70;;;;;;5041478;28;20704;-73
2021/03/07 07:45:34;;;;;;;14.40;9.20;;;0.30;72.70;;;;;;5034561;28;20189;-70
2021/03/07 07:48:00;;;;;;;15.00;8.70;;;0.30;72.40;;;;;;5032817;28;20653;-72
2021/03/07 07:50:29;;;;;;;12.93;8.45;;;0.40;72.10;;;;;;5045748;28;20398;-71
2021/03/07 07:53:18;;;;;;;15.45;9.00;;;0.50;72.10;;;;;;5044020;28;20204;-71
2021/03/07 07:55:52;;;;;;;17.13;9.73;;;0.60;71.70;;;;;;5017927;28;20193;-71
2021/03/07 07:58:36;;;;;;;13.05;8.13;;;0.60;71.70;;;;;;5043128;28;20182;-73
2021/03/07 08:01:05;;;;;;;15.55;9.60;;;0.60;71.60;;;;;;5026147;28;20691;-73
2021/03/07 08:03:34;;;;;;;17.40;9.15;;;0.70;70.70;;;;;;5026799;28;20209;-72
2021/03/07 08:06:10;;;;;;;16.95;9.50;;;0.80;70.20;;;;;;5037261;28;20196;-72
2021/03/07 08:08:40;;;;;;;20.20;10.75;;;0.90;69.50;;;;;;5033129;28;20184;-72
2021/03/07 08:11:26;;;;;;;20.13;9.45;;;0.90;69.10;;;;;;5047743;28;20184;-71
2021/03/07 08:13:53;;;;;;;17.13;9.07;;;1.00;68.80;;;;;;5043769;28;20195;-72
2021/03/07 08:16:42;;;;;;;20.25;9.63;;;1.00;68.60;;;;;;5038092;28;20208;-73
2021/03/07 08:19:13;;;;;;;14.07;9.05;;;1.10;68.50;;;;;;5037477;28;20280;-73
2021/03/07 08:21:59;;;;;;;20.35;8.73;;;1.20;68.30;;;;;;5041098;28;20828;-71
2021/03/07 08:24:52;;;;;;;17.15;9.00;;;1.30;68.20;;;;;;5040181;28;20201;-70
2021/03/07 08:27:38;;;;;;;20.35;10.15;;;1.40;67.90;;;;;;5025829;28;20837;-71
2021/03/07 08:30:14;;;;;;;19.42;10.38;;;1.50;68.20;;;;;;5042395;28;20192;-70
2021/03/07 08:32:41;;;;;;;16.52;9.70;;;1.60;68.30;;;;;;5038437;28;20287;-71
2021/03/07 08:35:13;;;;;;;16.42;10.35;;;1.60;68.20;;;;;;5036203;28;20185;-72
2021/03/07 08:37:40;;;;;;;20.90;9.38;;;1.70;68.20;;;;;;5039584;28;20185;-70
2021/03/07 08:40:33;;;;;;;18.20;9.07;;;1.80;67.60;;;;;;5035225;28;20598;-73
2021/03/07 08:43:24;;;;;;;22.15;10.10;;;1.90;67.20;;;;;;5032508;28;20396;-71
2021/03/07 08:46:01;;;;;;;21.52;10.05;;;2.00;66.70;;;;;;5043691;28;20181;-72
2021/03/07 08:48:28;;;;;;;18.42;11.07;;;2.10;66.40;;;;;;5043642;28;20231;-73
2021/03/07 08:50:55;;;;;;;22.77;10.38;;;2.20;66.40;;;;;;5042648;28;20268;-73
2021/03/07 08:53:29;;;;;;;16.83;9.95;;;2.30;66.40;;;;;;5044619;28;20245;-74
2021/03/07 08:55:55;;;;;;;17.35;10.20;;;2.30;66.40;;;;;;5041462;28;20771;-73
2021/03/07 08:58:21;;;;;;;17.65;9.52;;;2.50;65.80;;;;;;5033399;28;20189;-73
2021/03/07 09:00:50;;;;;;;20.42;11.10;;;2.70;64.70;;;;;;5032378;28;20671;-73
2021/03/07 09:03:18;;;;;;;13.57;9.02;;;2.70;64.10;;;;;;5044819;28;20249;-73
2021/03/07 09:05:44;;;;;;;16.48;9.07;;;2.80;64.20;;;;;;5030462;28;20193;-73
2021/03/07 09:08:10;;;;;;;18.73;10.07;;;2.90;63.20;;;;;;5035661;28;20181;-73
2021/03/07 09:10:45;;;;;;;13.70;8.90;;;3.00;63.20;;;;;;5038470;28;21112;-74
2021/03/07 09:13:18;;;;;;;18.00;9.80;;;3.20;62.00;;;;;;5031148;28;20443;-73
2021/03/07 09:15:55;;;;;;;15.40;9.48;;;3.30;61.70;;;;;;5029865;28;20463;-73
2021/03/07 09:18:26;;;;;;;17.90;9.40;;;3.50;61.70;;;;;;5046979;28;20197;-72
2021/03/07 09:20:53;;;;;;;18.67;9.50;;;3.60;61.00;;;;;;5036576;28;20438;-73
2021/03/07 09:23:26;;;;;;;18.27;10.45;;;3.80;60.10;;;;;;5051882;28;20197;-73
2021/03/07 09:25:52;;;;;;;17.30;8.80;;;3.90;59.50;;;;;;5023057;28;20188;-74
2021/03/07 09:28:50;;;;;;;19.87;9.70;;;4.10;59.20;;;;;;5030814;28;20439;-73
2021/03/07 09:31:23;;;;;;;15.70;9.20;;;4.20;58.90;;;;;;4982208;28;20717;-74
2021/03/07 09:33:49;;;;;;;18.80;9.67;;;4.40;58.50;;;;;;4989469;28;20576;-72
2021/03/07 09:36:16;;;;;;;17.50;9.33;;;4.60;58.10;;;;;;4988448;28;21080;-73
2021/03/07 09:38:59;;;;;;;15.50;9.30;;;4.80;58.00;;;;;;4980899;28;20438;-74
2021/03/07 09:41:32;;;;;;;16.90;9.60;;;5.10;57.70;;;;;;4979454;28;20476;-73
2021/03/07 09:44:00;;;;;;;16.20;9.23;;;5.40;56.50;;;;;;4981576;28;20427;-74
2021/03/07 09:46:27;;;;;;;17.77;9.70;;;5.60;55.80;;;;;;4968546;28;21052;-74
2021/03/07 09:49:01;;;;;;;17.60;10.43;;;5.70;55.00;;;;;;4971735;28;20565;-74
2021/03/07 09:51:35;;;;;;;21.40;10.40;;;5.80;54.90;;;;;;4972091;28;20524;-73
2021/03/07 09:54:02;;;;;;;21.30;10.10;;;6.00;53.80;;;;;;4959422;28;20949;-74
2021/03/07 09:56:34;;;;;;;18.30;11.17;;;6.10;54.00;;;;;;4978566;28;20525;-73
2021/03/07 09:59:25;;;;;;;20.70;9.93;;;6.30;54.40;;;;;;4971000;28;20494;-73
2021/03/07 10:01:53;;;;;;;19.57;10.87;;;6.30;52.80;;;;;;4967872;28;20948;-72
2021/03/07 10:04:35;;;;;;;17.23;9.83;;;6.00;53.30;;;;;;4968647;28;20505;-72
2021/03/07 10:07:22;;;;;;;24.47;9.47;;;6.10;54.00;;;;;;4988877;28;20987;-72
2021/03/07 10:09:57;;;;;;;18.10;10.43;;;6.30;53.70;;;;;;5023822;28;20435;-72
2021/03/07 10:12:24;;;;;;;19.10;10.23;;;6.30;53.40;;;;;;5028131;28;20993;-71
2021/03/07 10:14:54;;;;;;;16.40;9.90;;;6.30;53.40;;;;;;5027607;28;20935;-73
2021/03/07 10:17:21;;;;;;;23.17;10.83;;;6.40;53.60;;;;;;5036195;28;20419;-72
2021/03/07 10:19:48;;;;;;;19.97;11.53;;;6.40;53.30;;;;;;5052057;28;20440;-71
2021/03/07 10:22:14;;;;;;;20.23;11.60;;;6.60;53.20;;;;;;5046277;28;20832;-73
2021/03/07 10:24:40;;;;;;;17.97;11.13;;;6.70;52.50;;;;;;5046359;28;20418;-72
2021/03/07 10:27:08;;;;;;;17.90;10.77;;;6.80;52.50;;;;;;5015747;28;20443;-72
2021/03/07 10:29:36;;;;;;;16.67;10.13;;;6.90;52.40;;;;;;5038226;28;20431;-71
2021/03/07 10:32:17;;;;;;;25.00;11.93;;;7.00;52.40;;;;;;5025707;28;20840;-72
2021/03/07 10:34:45;;;;;;;19.43;10.63;;;7.00;52.10;;;;;;5038722;28;20423;-72
2021/03/07 10:37:34;;;;;;;16.57;10.70;;;7.10;52.10;;;;;;5018152;28;20470;-70
2021/03/07 10:40:00;;;;;;;25.30;11.70;;;7.20;51.40;;;;;;5032063;28;20427;-71
2021/03/07 10:42:39;;;;;;;19.43;10.10;;;7.30;50.90;;;;;;5021970;28;20574;-72
2021/03/07 10:45:37;;;;;;;20.80;11.57;;;7.20;51.20;;;;;;5032504;28;20890;-71
2021/03/07 10:48:07;;;;;;;19.47;10.10;;;7.50;51.00;;;;;;5032330;28;21202;-72
2021/03/07 10:50:35;;;;;;;18.20;10.50;;;8.00;49.70;;;;;;5019985;28;20527;-71
2021/03/07 10:53:01;;;;;;;20.77;11.27;;;8.30;48.20;;;;;;5028016;28;20451;-71
2021/03/07 10:55:27;;;;;;;22.63;11.20;;;8.30;48.60;;;;;;5025837;28;20953;-71
2021/03/07 10:57:53;;;;;;;17.87;10.30;;;8.30;48.20;;;;;;5029018;28;20431;-72
2021/03/07 11:00:20;;;;;;;22.13;10.63;;;7.90;49.00;;;;;;5042412;28;20996;-72
2021/03/07 11:02:46;;;;;;;20.63;10.80;;;7.80;49.80;;;;;;5046546;28;20231;-71
2021/03/07 11:05:16;;;;;;;19.10;11.07;;;7.70;49.80;;;;;;5043580;28;20420;-74
2021/03/07 11:07:43;;;;;;;22.80;11.57;;;7.50;50.50;;;;;;5027671;28;20485;-73
2021/03/07 11:10:10;;;;;;;20.30;11.07;;;7.40;51.00;;;;;;5027512;28;20431;-72
2021/03/07 11:12:37;;;;;;;22.23;11.37;;;7.20;51.60;;;;;;5026998;28;20452;-72
2021/03/07 11:15:05;;;;;;;14.97;9.83;;;7.10;52.20;;;;;;5028032;28;20538;-72
2021/03/07 11:17:31;;;;;;;18.53;10.80;;;6.90;53.00;;;;;;5040012;28;20422;-72
2021/03/07 11:19:57;;;;;;;19.93;10.63;;;6.90;53.30;;;;;;5047798;28;20501;-71
2021/03/07 11:22:23;;;;;;;21.00;12.20;;;7.10;53.40;;;;;;5041869;28;20471;-72
2021/03/07 11:24:49;;;;;;;21.73;11.40;;;7.30;52.50;;;;;;5040799;28;20431;-72
2021/03/07 11:27:15;;;;;;;19.37;10.20;;;7.50;52.00;;;;;;5030772;28;20412;-70
2021/03/07 11:29:40;;;;;;;22.33;13.07;;;7.50;52.00;;;;;;5039653;28;20214;-73
2021/03/07 11:32:07;;;;;;;21.90;11.97;;;7.90;50.90;;;;;;5037559;28;20216;-72
2021/03/07 11:34:32;;;;;;;22.53;11.87;;;8.40;49.80;;;;;;5048969;28;20652;-72
2021/03/07 11:36:58;;;;;;;23.47;10.97;;;8.80;48.70;;;;;;5030854;28;20471;-70
2021/03/07 11:39:24;;;;;;;25.10;11.90;;;9.00;47.90;;;;;;5019331;28;20190;-72
2021/03/07 11:41:50;;;;;;;16.63;10.53;;;9.50;46.60;;;;;;5015359;28;20997;-72
2021/03/07 11:44:16;;;;;;;21.80;11.20;;;9.70;45.30;;;;;;5036862;28;20243;-73
2021/03/07 11:46:42;;;;;;;20.10;11.60;;;9.90;45.40;;;;;;5031978;28;20184;-70
2021/03/07 11:49:07;;;;;;;20.93;11.97;;;9.70;45.70;;;;;;5044786;28;20232;-72
2021/03/07 11:51:34;;;;;;;19.60;11.73;;;9.30;46.90;;;;;;5019287;28;20466;-71
2021/03/07 11:54:02;;;;;;;20.03;10.93;;;9.20;46.90;;;;;;5037226;28;20254;-72
2021/03/07 11:56:28;;;;;;;20.37;11.17;;;8.90;47.70;;;;;;5035278;28;20427;-72
2021/03/07 11:58:54;;;;;;;17.60;10.27;;;9.30;47.80;;;;;;5048895;28;20554;-70
2021/03/07 12:01:19;;;;;;;20.67;12.03;;;9.80;46.90;;;;;;5035409;28;20490;-72
2021/03/07 12:03:45;;;;;;;15.90;10.10;;;10.20;45.10;;;;;;5037337;28;20216;-72
2021/03/07 12:06:11;;;;;;;21.53;11.63;;;10.00;45.50;;;;;;5046028;28;20196;-72
2021/03/07 12:08:37;;;;;;;17.60;10.60;;;9.90;45.50;;;;;;5051992;28;20192;-72
2021/03/07 12:11:03;;;;;;;23.63;10.27;;;9.30;45.10;;;;;;5039357;28;20627;-71
2021/03/07 12:13:29;;;;;;;18.50;10.10;;;9.30;46.10;;;;;;5041245;28;20817;-72
2021/03/07 12:15:55;;;;;;;17.20;9.40;;;9.60;45.30;;;;;;5023460;28;20465;-73
2021/03/07 12:18:21;;;;;;;23.80;11.03;;;10.10;44.90;;;;;;5046741;28;20257;-73
2021/03/07 12:20:46;;;;;;;18.87;10.47;;;10.40;42.60;;;;;;5038873;28;20696;-72
2021/03/07 12:23:12;;;;;;;18.70;9.63;;;10.50;42.70;;;;;;5043608;28;20217;-70
2021/03/07 12:25:38;;;;;;;21.30;11.40;;;10.80;42.00;;;;;;5039178;28;20182;-71
2021/03/07 12:28:05;;;;;;;21.77;11.30;;;10.80;41.40;;;;;;5025929;28;20186;-72
2021/03/07 12:30:31;;;;;;;17.00;9.70;;;10.40;43.00;;;;;;5030708;28;20482;-71
2021/03/07 12:32:57;;;;;;;18.50;11.03;;;10.30;43.20;;;;;;5033682;28;20908;-72
2021/03/07 12:35:22;;;;;;;17.40;10.53;;;10.40;42.60;;;;;;5049947;28;20513;-73
2021/03/07 12:37:48;;;;;;;17.53;10.13;;;10.30;42.70;;;;;;5053461;28;20189;-72
2021/03/07 12:40:14;;;;;;;18.00;10.83;;;10.10;43.20;;;;;;5040344;28;20203;-72
2021/03/07 12:42:40;;;;;;;20.37;10.50;;;9.80;43.80;;;;;;5043268;28;20231;-71
2021/03/07 12:45:07;;;;;;;21.30;11.03;;;9.60;43.80;;;;;;5036874;28;20603;-71
2021/03/07 12:47:33;;;;;;;18.37;10.40;;;9.50;44.10;;;;;;5042192;28;20443;-71